Flugplatz Neumünster

Für EDHN sind keine METAR/TAF Berichte vorhanden.
Es werden die Flugwettermeldungen vom Flugplatz Kiel-Holtenau in 35 km Entfernung angezeigt.

Bericht für EDHK

vom 07.12. um 16:50 UTC

Wind 9 kt aus 150°

Sichtweite 8000 m

bedeckt in 700 ft

Temperatur 1.0°C

Taupunkt -1.0°C

Luftfeuchtigkeit 86%

Luftdruck 1008 hPa

EDHK 071650Z AUTO 15009KT 110V200 8000 // OVC007/// 01/M01 Q1008

Prognose für EDHK

vom 07.12. um 14:00 UTC

Zwischen 15:00 UTC und 19:00 UTC

Wind 11 kt aus 140°

Sichtweite 10 km oder mehr

aufgebrochene Bewölkung in 800 ft


Zwischen 15:00 UTC und 19:00 UTC zeitweise

aufgebrochene Bewölkung in 1000 ft

TAF EDHK 071400Z 0715/0719 14011KT 9999 BKN008 TEMPO 0715/0719 BKN010
Impressum